Main page
METAR-TAF:

METAR-TAF

Airports :

Custer Airport

Monroe, Michigan, United States

latitude: 41-56-24N, longitude: 083-26-05W, elevation: 188 m

Current weather observation

The report was made 25 minutes ago, at 08:55 UTC
Wind 10 kt from the South
Temperature 20°C
Humidity 73%
Pressure 1012 hPa
Visibility: 16.1 km
Clear sky

METAR: KTTF 250855Z AUTO 19010KT 10SM CLR 20/15 A2987 RMK AO2 T02010148

Time: 05:20 (09:20 UTC)


TAF: missing

Weather observations and forecasts of more than 4000 airports (METAR and TAF reports).

The available stations are represented by yellow and red dots on the map.

Hover mouse over dot to see the name of the station.

Then click to see weather observations and forecasts.

To change the map : click on the green buttons with a black cross to zoom in, on the green button with a dash to zoom out, or on the green arrows for adjacent maps.


METAR-TAF: